Time;durP1;ratioP1;P1;durP2;ratioP2;P2;SDS_P1;SDS_P2;PMS_P1;PMS_P2;Temp;Humidity;BMP_temperature;BMP_pressure;BME280_temperature;BME280_humidity;BME280_pressure;Samples;Min_cycle;Max_cycle;Signal;HPM_P1;HPM_P2
2022/04/20 00:02:23;;;;;;;3.77;3.10;;;8.90;99.90;;;;;;5115575;28;20456;-70
2022/04/20 00:04:50;;;;;;;3.20;2.90;;;8.90;99.90;;;;;;5115280;28;20456;-70
2022/04/20 00:07:17;;;;;;;4.90;3.27;;;8.90;99.90;;;;;;5115315;28;20457;-70
2022/04/20 00:09:45;;;;;;;4.00;3.00;;;8.90;99.90;;;;;;5115153;28;20513;-70
2022/04/20 00:12:12;;;;;;;4.20;3.20;;;8.90;99.90;;;;;;5115304;28;20510;-70
2022/04/20 00:14:38;;;;;;;4.87;2.83;;;8.90;99.90;;;;;;5115177;28;20839;-71
2022/04/20 00:17:05;;;;;;;3.73;2.90;;;8.90;99.90;;;;;;5115295;28;20488;-70
2022/04/20 00:19:32;;;;;;;3.63;2.30;;;8.90;99.90;;;;;;5115212;28;20480;-71
2022/04/20 00:21:59;;;;;;;9.23;3.20;;;8.90;99.90;;;;;;5115238;28;20528;-70
2022/04/20 00:24:25;;;;;;;3.93;3.43;;;8.90;99.90;;;;;;5115113;28;20456;-71
2022/04/20 00:26:53;;;;;;;11.93;3.17;;;8.90;99.90;;;;;;5115114;28;20472;-70
2022/04/20 00:29:20;;;;;;;3.47;2.60;;;8.90;99.90;;;;;;5114952;28;20513;-69
2022/04/20 00:31:47;;;;;;;3.97;3.13;;;8.90;99.90;;;;;;5114603;28;20920;-69
2022/04/20 00:34:13;;;;;;;3.60;2.80;;;8.90;99.90;;;;;;5114895;28;20925;-70
2022/04/20 00:36:40;;;;;;;3.10;2.73;;;8.90;99.90;;;;;;5114968;28;20456;-70
2022/04/20 00:39:07;;;;;;;3.93;2.93;;;8.90;99.90;;;;;;5114989;28;20491;-70
2022/04/20 00:41:34;;;;;;;3.07;2.70;;;8.90;99.90;;;;;;5114768;28;20452;-70
2022/04/20 00:44:03;;;;;;;3.10;2.80;;;8.90;99.90;;;;;;5115136;28;20461;-70
2022/04/20 00:46:32;;;;;;;4.53;3.00;;;8.90;99.90;;;;;;5114933;28;20925;-70
2022/04/20 00:48:59;;;;;;;3.63;3.00;;;8.90;99.90;;;;;;5115001;28;20448;-70
2022/04/20 00:51:26;;;;;;;8.80;3.17;;;8.90;99.90;;;;;;5114955;28;20821;-69
2022/04/20 00:53:53;;;;;;;5.30;3.03;;;8.90;99.90;;;;;;5115240;28;20901;-69
2022/04/20 00:56:19;;;;;;;5.70;3.00;;;8.90;99.90;;;;;;5114812;28;20785;-71
2022/04/20 00:58:47;;;;;;;4.87;3.40;;;8.90;99.90;;;;;;5114524;28;20972;-69
2022/04/20 01:01:15;;;;;;;3.60;3.20;;;8.90;99.90;;;;;;5114879;28;20479;-72
2022/04/20 01:03:43;;;;;;;4.83;3.20;;;8.90;99.90;;;;;;5114734;28;20452;-70
2022/04/20 01:06:10;;;;;;;5.80;3.50;;;8.90;99.90;;;;;;5114714;28;20456;-70
2022/04/20 01:08:37;;;;;;;8.23;3.70;;;8.90;99.90;;;;;;5117023;28;20451;-69
2022/04/20 01:11:05;;;;;;;4.50;3.43;;;8.90;99.90;;;;;;5118462;28;20484;-69
2022/04/20 01:13:32;;;;;;;7.73;4.07;;;8.80;99.90;;;;;;5118880;28;20505;-70
2022/04/20 01:15:59;;;;;;;6.03;3.10;;;8.80;99.90;;;;;;5118409;28;20792;-69
2022/04/20 01:18:28;;;;;;;3.27;2.97;;;8.80;99.90;;;;;;5118414;28;20533;-69
2022/04/20 01:20:56;;;;;;;4.53;3.40;;;8.80;99.90;;;;;;5118180;28;20456;-70
2022/04/20 01:23:23;;;;;;;4.20;3.17;;;8.70;99.90;;;;;;5118433;28;20841;-69
2022/04/20 01:25:50;;;;;;;4.93;3.47;;;8.70;99.90;;;;;;5118254;28;20453;-70
2022/04/20 01:28:17;;;;;;;3.83;2.83;;;8.70;99.90;;;;;;5118551;28;20509;-71
2022/04/20 01:30:44;;;;;;;4.33;3.53;;;8.70;99.90;;;;;;5118478;28;20464;-71
2022/04/20 01:33:11;;;;;;;4.53;4.10;;;8.70;99.90;;;;;;5118174;28;20526;-71
2022/04/20 01:35:37;;;;;;;4.80;3.50;;;8.70;99.90;;;;;;5118130;28;20479;-71
2022/04/20 01:38:06;;;;;;;7.23;3.33;;;8.70;99.90;;;;;;5118135;28;20476;-69
2022/04/20 01:40:32;;;;;;;6.30;3.40;;;8.70;99.90;;;;;;5117859;28;20452;-70
2022/04/20 01:42:59;;;;;;;6.77;3.60;;;8.70;99.90;;;;;;5118252;28;20567;-70
2022/04/20 01:45:26;;;;;;;6.33;3.40;;;8.70;99.90;;;;;;5118428;28;20566;-70
2022/04/20 01:47:52;;;;;;;5.37;3.60;;;8.70;99.90;;;;;;5118143;28;20463;-71
2022/04/20 01:50:19;;;;;;;7.43;3.50;;;8.60;99.90;;;;;;5118578;28;20510;-70
2022/04/20 01:52:48;;;;;;;4.77;3.57;;;8.60;99.90;;;;;;5118136;28;20519;-70
2022/04/20 01:55:17;;;;;;;5.20;3.60;;;8.60;99.90;;;;;;5117620;28;20579;-71
2022/04/20 01:57:43;;;;;;;4.80;3.40;;;8.60;99.90;;;;;;5117292;28;20883;-69
2022/04/20 02:00:11;;;;;;;4.47;3.47;;;8.60;99.90;;;;;;5117330;28;20457;-69
2022/04/20 02:02:38;;;;;;;5.57;3.53;;;8.60;99.90;;;;;;5117659;28;20514;-69
2022/04/20 02:05:07;;;;;;;4.23;3.27;;;8.50;99.90;;;;;;5117996;28;20464;-69
2022/04/20 02:07:35;;;;;;;4.00;3.27;;;8.50;99.90;;;;;;5117306;28;20517;-71
2022/04/20 02:10:03;;;;;;;4.07;3.40;;;8.50;99.90;;;;;;5117046;28;20448;-70
2022/04/20 02:12:31;;;;;;;5.03;3.83;;;8.50;99.90;;;;;;5117540;28;20464;-70
2022/04/20 02:14:58;;;;;;;6.07;4.07;;;8.50;99.90;;;;;;5117543;28;20518;-70
2022/04/20 02:17:24;;;;;;;4.77;3.60;;;8.50;99.90;;;;;;5117357;28;20453;-70
2022/04/20 02:19:51;;;;;;;4.97;3.70;;;8.50;99.90;;;;;;5116739;28;20491;-70
2022/04/20 02:22:18;;;;;;;6.57;3.70;;;8.50;99.90;;;;;;5117462;28;20452;-71
2022/04/20 02:24:45;;;;;;;4.33;3.33;;;8.50;99.90;;;;;;5117306;28;20456;-70
2022/04/20 02:27:13;;;;;;;6.43;3.67;;;8.50;99.90;;;;;;5116861;28;20464;-70
2022/04/20 02:29:41;;;;;;;5.93;4.17;;;8.50;99.90;;;;;;5117209;28;20456;-70
2022/04/20 02:32:09;;;;;;;5.07;3.23;;;8.50;99.90;;;;;;5117084;28;20521;-69
2022/04/20 02:34:36;;;;;;;7.20;3.90;;;8.40;99.90;;;;;;5116956;28;20906;-70
2022/04/20 02:37:04;;;;;;;5.00;3.90;;;8.40;99.90;;;;;;5117036;28;20826;-69
2022/04/20 02:39:31;;;;;;;5.30;3.37;;;8.30;99.90;;;;;;5116899;28;20583;-70
2022/04/20 02:41:59;;;;;;;5.50;3.50;;;8.30;99.90;;;;;;5116638;28;20456;-69
2022/04/20 02:44:26;;;;;;;7.03;3.60;;;8.40;99.90;;;;;;5116715;28;20511;-70
2022/04/20 02:46:54;;;;;;;6.23;3.40;;;8.40;99.90;;;;;;5116799;28;20460;-69
2022/04/20 02:49:21;;;;;;;5.70;3.90;;;8.40;99.90;;;;;;5116415;28;20954;-70
2022/04/20 02:51:48;;;;;;;6.53;3.97;;;8.40;99.90;;;;;;5116709;28;20840;-70
2022/04/20 02:54:14;;;;;;;4.13;3.73;;;8.30;99.90;;;;;;5116555;28;20468;-70
2022/04/20 02:56:41;;;;;;;9.33;3.77;;;8.40;99.90;;;;;;5116479;28;20492;-69
2022/04/20 02:59:08;;;;;;;5.90;3.60;;;8.40;99.90;;;;;;5116658;28;20476;-70
2022/04/20 03:01:34;;;;;;;9.77;3.90;;;8.40;99.90;;;;;;5116193;28;20452;-70
2022/04/20 03:04:03;;;;;;;8.40;5.27;;;8.40;99.90;;;;;;5116186;28;20513;-69
2022/04/20 03:06:30;;;;;;;6.40;3.80;;;8.40;99.90;;;;;;5116328;28;20456;-69
2022/04/20 03:08:56;;;;;;;4.27;3.63;;;8.40;99.90;;;;;;5116517;28;20514;-69
2022/04/20 03:11:24;;;;;;;5.30;3.07;;;8.40;99.90;;;;;;5116908;28;20453;-69
2022/04/20 03:13:51;;;;;;;8.57;4.20;;;8.40;99.90;;;;;;5116337;28;20905;-69
2022/04/20 03:16:18;;;;;;;6.10;3.93;;;8.40;99.90;;;;;;5116130;28;20525;-69
2022/04/20 03:18:44;;;;;;;4.43;3.93;;;8.40;99.90;;;;;;5116248;28;20491;-69
2022/04/20 03:21:12;;;;;;;6.60;4.43;;;8.40;99.90;;;;;;5116179;28;20467;-71
2022/04/20 03:23:39;;;;;;;5.90;4.40;;;8.50;99.90;;;;;;5116021;28;20464;-70
2022/04/20 03:26:06;;;;;;;4.57;4.10;;;8.50;99.90;;;;;;5116042;28;20452;-71
2022/04/20 03:28:33;;;;;;;7.20;4.33;;;8.50;99.90;;;;;;5116267;28;20476;-71
2022/04/20 03:31:00;;;;;;;6.13;4.13;;;8.50;99.90;;;;;;5116341;28;20461;-70
2022/04/20 03:33:27;;;;;;;6.17;4.63;;;8.50;99.90;;;;;;5116228;28;20452;-71
2022/04/20 03:35:54;;;;;;;5.67;4.20;;;8.50;99.90;;;;;;5115972;28;20452;-71
2022/04/20 03:38:22;;;;;;;6.63;3.97;;;8.50;99.90;;;;;;5115830;28;20460;-70
2022/04/20 03:40:49;;;;;;;12.83;5.30;;;8.50;99.90;;;;;;5115947;28;20484;-71
2022/04/20 03:43:15;;;;;;;5.57;4.60;;;8.50;99.90;;;;;;5115460;28;20464;-70
2022/04/20 03:45:43;;;;;;;5.80;4.30;;;8.50;99.90;;;;;;5116142;28;20909;-69
2022/04/20 03:48:09;;;;;;;7.03;4.70;;;8.50;99.90;;;;;;5115917;28;20510;-70
2022/04/20 03:50:36;;;;;;;6.73;5.00;;;8.50;99.90;;;;;;5115646;28;20460;-70
2022/04/20 03:53:02;;;;;;;5.33;4.83;;;8.50;99.90;;;;;;5115691;28;20464;-71
2022/04/20 03:55:31;;;;;;;8.67;5.00;;;8.50;99.90;;;;;;5115213;28;20480;-71
2022/04/20 03:57:57;;;;;;;5.40;4.50;;;8.50;99.90;;;;;;5115257;28;20913;-70
2022/04/20 04:00:25;;;;;;;6.07;5.00;;;8.50;99.90;;;;;;5115370;28;20855;-71
2022/04/20 04:02:52;;;;;;;5.67;4.47;;;8.50;99.90;;;;;;5115457;28;20460;-70
2022/04/20 04:05:19;;;;;;;7.67;5.37;;;8.50;99.90;;;;;;5115515;28;20492;-71
2022/04/20 04:07:46;;;;;;;8.67;5.73;;;8.60;99.90;;;;;;5115203;28;20921;-69
2022/04/20 04:10:12;;;;;;;7.57;4.90;;;8.60;99.90;;;;;;5115165;28;20481;-69
2022/04/20 04:12:41;;;;;;;6.83;5.17;;;8.60;99.90;;;;;;5115142;28;20483;-69
2022/04/20 04:15:09;;;;;;;5.33;4.83;;;8.60;99.90;;;;;;5115159;28;20461;-70
2022/04/20 04:17:35;;;;;;;7.00;5.40;;;8.60;99.90;;;;;;5115257;28;20464;-69
2022/04/20 04:20:03;;;;;;;9.43;4.80;;;8.60;99.90;;;;;;5115077;28;20483;-70
2022/04/20 04:22:29;;;;;;;9.43;5.80;;;8.60;99.90;;;;;;5114640;28;20466;-70
2022/04/20 04:24:57;;;;;;;7.63;5.13;;;8.60;99.90;;;;;;5114904;28;20517;-70
2022/04/20 04:27:24;;;;;;;6.00;4.87;;;8.60;99.90;;;;;;5115119;28;20892;-70
2022/04/20 04:29:52;;;;;;;6.53;5.07;;;8.60;99.90;;;;;;5115127;28;20456;-70
2022/04/20 04:32:19;;;;;;;6.63;5.90;;;8.70;99.90;;;;;;5115078;28;20539;-70
2022/04/20 04:34:45;;;;;;;10.83;6.07;;;8.70;99.90;;;;;;5115270;28;20521;-70
2022/04/20 04:37:14;;;;;;;5.77;4.73;;;8.80;99.90;;;;;;5115130;28;20453;-71
2022/04/20 04:39:41;;;;;;;8.07;5.40;;;8.80;99.90;;;;;;5114905;28;20476;-71
2022/04/20 04:42:08;;;;;;;6.07;5.20;;;8.90;99.90;;;;;;5115780;28;20467;-71
2022/04/20 04:44:35;;;;;;;7.07;5.00;;;8.90;99.90;;;;;;5119529;28;20456;-71
2022/04/20 04:49:51;;;;;;;9.70;7.20;;;8.90;99.90;;;;;;5118945;28;20424;-70
2022/04/20 04:52:17;;;;;;;8.93;6.57;;;9.00;99.90;;;;;;5118893;28;20840;-70
2022/04/20 04:54:44;;;;;;;7.23;6.10;;;9.00;99.90;;;;;;5118984;28;20813;-70
2022/04/20 04:57:12;;;;;;;9.40;6.10;;;9.00;99.90;;;;;;5078143;28;20458;-70
2022/04/20 04:59:39;;;;;;;7.10;4.80;;;9.00;99.90;;;;;;5078363;28;20542;-70
2022/04/20 05:02:09;;;;;;;5.77;5.17;;;9.00;99.90;;;;;;5077947;28;20462;-70
2022/04/20 05:04:36;;;;;;;7.20;5.63;;;9.10;99.90;;;;;;5078163;28;20462;-70
2022/04/20 05:07:04;;;;;;;8.23;5.67;;;9.00;99.90;;;;;;5077487;28;20527;-71
2022/04/20 05:09:31;;;;;;;6.27;5.03;;;9.00;99.90;;;;;;5078014;28;20456;-70
2022/04/20 05:11:58;;;;;;;9.07;6.93;;;9.00;99.90;;;;;;5077921;28;20458;-71
2022/04/20 05:14:25;;;;;;;15.10;7.10;;;9.00;99.90;;;;;;5077804;28;20764;-70
2022/04/20 05:16:52;;;;;;;7.53;6.43;;;9.00;99.90;;;;;;5077713;28;20450;-70
2022/04/20 05:19:20;;;;;;;6.83;5.93;;;9.10;99.90;;;;;;5077346;28;20965;-70
2022/04/20 05:21:46;;;;;;;7.57;5.43;;;9.10;99.90;;;;;;5077722;28;20790;-71
2022/04/20 05:24:14;;;;;;;7.23;5.53;;;9.10;99.90;;;;;;5077486;28;20465;-70
2022/04/20 05:26:40;;;;;;;8.40;6.13;;;9.10;99.90;;;;;;5077333;28;20840;-70
2022/04/20 05:29:07;;;;;;;9.60;7.70;;;9.00;99.90;;;;;;5077314;28;20468;-70
2022/04/20 05:31:34;;;;;;;8.07;6.20;;;9.00;99.90;;;;;;5077649;28;20457;-70
2022/04/20 05:34:02;;;;;;;7.83;6.33;;;9.00;99.90;;;;;;5077398;28;20927;-70
2022/04/20 05:41:39;;;;;;;8.57;6.60;;;9.00;99.90;;;;;;5077358;28;20453;-70
2022/04/20 05:42:02;;;;;;;12.77;6.37;;;9.00;99.90;;;;;;5077211;28;20484;-70
2022/04/20 05:44:29;;;;;;;7.23;6.10;;;9.00;99.90;;;;;;5078053;28;20454;-70
2022/04/20 05:46:56;;;;;;;16.80;8.00;;;9.10;99.90;;;;;;5077145;28;20465;-70
2022/04/20 05:49:22;;;;;;;9.90;5.77;;;9.10;99.90;;;;;;5077737;28;20485;-69
2022/04/20 05:51:51;;;;;;;23.13;8.83;;;9.10;99.90;;;;;;5077380;28;20461;-70
2022/04/20 05:54:18;;;;;;;9.63;7.03;;;9.10;99.90;;;;;;5076226;28;20527;-70
2022/04/20 05:56:44;;;;;;;15.20;11.10;;;9.10;99.90;;;;;;5110061;28;20554;-70
2022/04/20 05:59:11;;;;;;;21.97;15.40;;;9.10;99.90;;;;;;5117780;28;20465;-70
2022/04/20 06:01:38;;;;;;;30.57;17.40;;;9.10;99.90;;;;;;5117818;28;20452;-69
2022/04/20 06:04:05;;;;;;;8.90;6.67;;;9.10;99.90;;;;;;5117446;28;20452;-70
2022/04/20 06:06:31;;;;;;;8.30;5.93;;;9.10;99.90;;;;;;5117911;28;20479;-71
2022/04/20 06:08:59;;;;;;;10.37;7.07;;;9.10;99.90;;;;;;5117675;28;20551;-70
2022/04/20 06:11:28;;;;;;;7.67;6.70;;;9.10;99.90;;;;;;5117565;28;20475;-70
2022/04/20 06:13:55;;;;;;;7.20;6.50;;;9.10;99.90;;;;;;5117925;28;20503;-70
2022/04/20 06:16:21;;;;;;;21.93;15.17;;;9.10;99.90;;;;;;5119749;28;20471;-70
2022/04/20 06:18:48;;;;;;;7.10;6.10;;;9.10;99.90;;;;;;5119500;28;20791;-70
2022/04/20 06:21:15;;;;;;;6.77;6.07;;;9.20;99.90;;;;;;5117468;28;20476;-70
2022/04/20 06:23:42;;;;;;;7.30;5.60;;;9.10;99.90;;;;;;5117292;28;20487;-70
2022/04/20 06:26:10;;;;;;;7.70;6.37;;;9.20;99.90;;;;;;5117428;28;20456;-70
2022/04/20 06:28:37;;;;;;;10.67;6.20;;;9.30;99.90;;;;;;5117198;28;20457;-69
2022/04/20 06:31:04;;;;;;;6.40;5.70;;;9.40;99.90;;;;;;5117167;28;20772;-70
2022/04/20 06:33:31;;;;;;;7.77;5.43;;;9.50;99.90;;;;;;5117194;28;20471;-70
2022/04/20 06:36:00;;;;;;;11.90;6.90;;;9.50;99.90;;;;;;5116520;28;20453;-71
2022/04/20 06:38:27;;;;;;;7.80;4.93;;;9.50;99.90;;;;;;5116918;28;20463;-71
2022/04/20 06:40:54;;;;;;;10.60;6.13;;;9.50;99.90;;;;;;5116271;28;20472;-71
2022/04/20 06:43:22;;;;;;;8.50;6.43;;;9.60;99.90;;;;;;5117101;28;20463;-71
2022/04/20 06:45:49;;;;;;;7.87;5.63;;;9.60;99.90;;;;;;5116878;28;20488;-71
2022/04/20 06:48:15;;;;;;;11.83;5.50;;;9.70;99.90;;;;;;5116872;28;20848;-71
2022/04/20 06:50:44;;;;;;;11.60;6.07;;;9.70;99.90;;;;;;5116435;28;20464;-71
2022/04/20 06:58:41;;;;;;;5.43;4.93;;;10.00;99.90;;;;;;5116336;28;20435;-71
2022/04/20 07:01:08;;;;;;;9.20;4.90;;;10.10;99.90;;;;;;5115795;28;20489;-71
2022/04/20 07:03:36;;;;;;;6.77;5.80;;;10.20;99.90;;;;;;5116433;28;20561;-71
2022/04/20 07:06:04;;;;;;;12.07;8.00;;;10.20;99.90;;;;;;5115855;28;20460;-70
2022/04/20 07:08:30;;;;;;;7.47;5.60;;;10.30;99.90;;;;;;5115770;28;20521;-71
2022/04/20 07:10:57;;;;;;;5.50;4.93;;;10.30;99.90;;;;;;5116460;28;20500;-70
2022/04/20 07:13:24;;;;;;;6.33;5.00;;;10.40;99.90;;;;;;5116069;28;20452;-72
2022/04/20 07:15:52;;;;;;;7.47;5.10;;;10.50;99.90;;;;;;5116222;28;20460;-70
2022/04/20 07:18:19;;;;;;;7.90;5.03;;;10.60;99.90;;;;;;5116268;28;20761;-70
2022/04/20 07:20:45;;;;;;;5.87;4.33;;;10.70;99.90;;;;;;5115787;28;20480;-71
2022/04/20 07:23:12;;;;;;;5.50;4.90;;;10.70;99.90;;;;;;5116202;28;20471;-70
2022/04/20 07:25:39;;;;;;;7.87;5.13;;;10.80;99.90;;;;;;5116210;28;20467;-70
2022/04/20 07:28:07;;;;;;;5.80;4.37;;;10.80;99.90;;;;;;5115908;28;20517;-72
2022/04/20 07:30:34;;;;;;;6.00;4.23;;;10.90;99.90;;;;;;5115752;28;20971;-71
2022/04/20 07:33:02;;;;;;;14.40;10.33;;;10.90;99.90;;;;;;5115591;28;20457;-71
2022/04/20 07:35:29;;;;;;;7.00;6.17;;;11.00;99.90;;;;;;5115467;28;20913;-70
2022/04/20 07:37:56;;;;;;;5.27;4.77;;;10.90;99.90;;;;;;5115337;28;20484;-71
2022/04/20 07:40:23;;;;;;;7.77;5.77;;;11.00;99.90;;;;;;5115587;28;20978;-71
2022/04/20 07:42:53;;;;;;;6.87;4.80;;;11.00;99.90;;;;;;5115757;28;20581;-71
2022/04/20 07:45:20;;;;;;;5.80;5.20;;;11.00;99.90;;;;;;5115399;28;20583;-71
2022/04/20 07:47:46;;;;;;;9.03;5.10;;;11.00;99.90;;;;;;5115418;28;20899;-71
2022/04/20 07:50:21;;;;;;;5.30;4.57;;;11.10;99.90;;;;;;5115755;28;20488;-71
2022/04/20 07:52:49;;;;;;;6.50;4.70;;;11.10;99.90;;;;;;5115606;28;20460;-70
2022/04/20 07:55:19;;;;;;;5.13;4.50;;;11.20;99.90;;;;;;5115412;28;20492;-71
2022/04/20 07:57:46;;;;;;;4.50;4.10;;;11.30;99.90;;;;;;5115985;28;20452;-71
2022/04/20 08:00:15;;;;;;;8.07;4.30;;;11.40;99.90;;;;;;5115916;28;20487;-71
2022/04/20 08:02:43;;;;;;;10.67;5.07;;;11.60;99.90;;;;;;5115948;28;20460;-71
2022/04/20 08:05:10;;;;;;;6.37;4.03;;;11.70;99.90;;;;;;5115720;28;20909;-72
2022/04/20 08:07:39;;;;;;;4.90;3.87;;;11.90;99.90;;;;;;5115944;28;20461;-70
2022/04/20 08:10:07;;;;;;;7.60;3.87;;;12.00;99.90;;;;;;5115775;28;20452;-71
2022/04/20 08:12:37;;;;;;;4.90;3.70;;;12.10;99.90;;;;;;5115610;28;20456;-71
2022/04/20 08:15:06;;;;;;;4.37;3.63;;;12.30;99.90;;;;;;5116558;28;20517;-71
2022/04/20 08:17:32;;;;;;;6.80;4.37;;;12.30;99.90;;;;;;5115709;28;20456;-71
2022/04/20 08:19:59;;;;;;;5.57;2.87;;;12.40;99.90;;;;;;5116023;28;20787;-71
2022/04/20 08:22:26;;;;;;;4.33;3.20;;;12.40;99.90;;;;;;5116221;28;20852;-71
2022/04/20 08:24:54;;;;;;;3.63;2.90;;;12.50;99.90;;;;;;5115839;28;20514;-71
2022/04/20 08:27:22;;;;;;;3.50;2.70;;;12.60;99.90;;;;;;5115487;28;20463;-70
2022/04/20 08:29:49;;;;;;;4.80;3.23;;;12.70;99.90;;;;;;5115696;28;20551;-70
2022/04/20 08:32:17;;;;;;;6.57;3.23;;;12.80;99.90;;;;;;5115710;28;20463;-71
2022/04/20 08:34:44;;;;;;;3.40;2.70;;;12.90;99.90;;;;;;5115650;28;20537;-71
2022/04/20 08:37:11;;;;;;;4.30;2.60;;;12.90;99.90;;;;;;5115833;28;20818;-71
2022/04/20 08:39:38;;;;;;;6.63;2.93;;;12.90;99.90;;;;;;5115582;28;20514;-72
2022/04/20 08:42:09;;;;;;;32.70;20.57;;;13.00;99.90;;;;;;5115411;28;20865;-71
2022/04/20 08:44:38;;;;;;;5.20;3.37;;;13.10;99.90;;;;;;5115512;28;20470;-71
2022/04/20 08:47:07;;;;;;;2.80;2.60;;;13.20;99.90;;;;;;5115901;28;20535;-71
2022/04/20 08:49:34;;;;;;;3.13;2.63;;;13.10;99.90;;;;;;5115809;28;20777;-71
2022/04/20 08:54:46;;;;;;;2.70;2.50;;;13.00;99.90;;;;;;5115770;28;20907;-71
2022/04/20 08:57:18;;;;;;;3.90;3.10;;;12.90;99.90;;;;;;5115978;28;20457;-72
2022/04/20 08:59:46;;;;;;;5.60;3.47;;;12.90;99.90;;;;;;5115859;28;20437;-72
2022/04/20 09:02:14;;;;;;;8.10;3.40;;;12.80;99.90;;;;;;5115105;28;20567;-70
2022/04/20 09:04:41;;;;;;;13.93;7.53;;;12.90;99.90;;;;;;5114856;28;20452;-71
2022/04/20 09:07:12;;;;;;;3.40;2.97;;;12.90;99.90;;;;;;5115365;28;20460;-71
2022/04/20 09:09:39;;;;;;;2.53;2.17;;;12.90;99.90;;;;;;5115762;28;20463;-69
2022/04/20 09:12:10;;;;;;;4.70;2.60;;;12.90;99.90;;;;;;5115320;28;20448;-70
2022/04/20 09:14:39;;;;;;;3.70;2.60;;;12.80;99.90;;;;;;5115447;28;20444;-71
2022/04/20 09:17:06;;;;;;;6.70;3.03;;;12.80;99.90;;;;;;5116089;28;20453;-72
2022/04/20 09:19:33;;;;;;;6.13;2.97;;;12.80;99.90;;;;;;5115513;28;20452;-72
2022/04/20 09:21:59;;;;;;;3.10;2.60;;;12.80;99.90;;;;;;5115987;28;20482;-71
2022/04/20 09:24:26;;;;;;;2.53;2.33;;;12.70;99.90;;;;;;5115892;28;20514;-71
2022/04/20 09:26:54;;;;;;;6.40;4.07;;;12.70;99.90;;;;;;5115579;28;20758;-72
2022/04/20 09:29:21;;;;;;;4.73;3.03;;;12.60;99.90;;;;;;5117235;28;20760;-73
2022/04/20 09:31:50;;;;;;;3.23;2.93;;;12.50;99.90;;;;;;5119358;28;20449;-71
2022/04/20 09:34:53;;;;;;;4.93;3.10;;;12.50;99.90;;;;;;5119197;28;20528;-72
2022/04/20 09:37:21;;;;;;;4.30;3.10;;;12.40;99.90;;;;;;5119853;28;20440;-71
2022/04/20 09:39:49;;;;;;;3.40;3.10;;;12.50;99.90;;;;;;5119256;28;20551;-71
2022/04/20 09:42:16;;;;;;;6.03;3.20;;;12.70;99.90;;;;;;5119920;28;20479;-71
2022/04/20 09:44:54;;;;;;;3.13;2.77;;;12.80;99.90;;;;;;5119117;28;20909;-71
2022/04/20 09:50:10;;;;;;;9.20;2.70;;;13.10;99.90;;;;;;5119949;28;20750;-70
2022/04/20 09:52:38;;;;;;;16.10;4.20;;;13.20;99.90;;;;;;5118681;28;20529;-72
2022/04/20 09:55:06;;;;;;;5.87;4.17;;;13.40;99.90;;;;;;5118965;28;22394;-72
2022/04/20 09:57:36;;;;;;;6.03;3.03;;;13.60;99.90;;;;;;5118947;28;20453;-72
2022/04/20 10:00:08;;;;;;;6.07;3.00;;;13.70;99.90;;;;;;5118658;28;20476;-71
2022/04/20 10:02:39;;;;;;;6.70;3.00;;;13.80;99.90;;;;;;5118107;28;20515;-71
2022/04/20 10:05:06;;;;;;;3.40;2.60;;;13.90;99.90;;;;;;5117996;28;20441;-71
2022/04/20 10:07:35;;;;;;;3.60;2.90;;;14.00;99.90;;;;;;5117845;28;20460;-72
2022/04/20 10:10:01;;;;;;;4.63;3.20;;;14.00;99.90;;;;;;5117475;28;20456;-72
2022/04/20 10:12:31;;;;;;;3.30;2.73;;;13.90;99.90;;;;;;5118179;28;20448;-71
2022/04/20 10:17:50;;;;;;;4.33;2.90;;;13.90;99.90;;;;;;5117861;28;20506;-71
2022/04/20 10:20:17;;;;;;;4.87;3.27;;;14.00;99.90;;;;;;5117906;28;20482;-71
2022/04/20 10:22:44;;;;;;;4.37;3.10;;;14.00;99.90;;;;;;5117935;28;20985;-71
2022/04/20 10:25:13;;;;;;;7.13;2.93;;;13.90;99.90;;;;;;5119834;28;20461;-72
2022/04/20 10:27:59;;;;;;;3.03;2.77;;;13.70;99.90;;;;;;5120399;28;20469;-71
2022/04/20 10:30:33;;;;;;;4.50;3.30;;;13.50;99.90;;;;;;5119003;28;20452;-71
2022/04/20 10:33:08;;;;;;;3.57;2.87;;;13.30;99.90;;;;;;5118490;28;20796;-71
2022/04/20 10:35:59;;;;;;;5.80;2.90;;;13.10;99.90;;;;;;5118513;28;20545;-71
2022/04/20 10:38:27;;;;;;;3.20;2.90;;;12.90;99.90;;;;;;5120783;28;20932;-71
2022/04/20 10:41:06;;;;;;;6.80;3.20;;;12.80;99.90;;;;;;5118164;28;20480;-71
2022/04/20 10:43:35;;;;;;;5.03;2.97;;;12.60;99.90;;;;;;5117984;28;20448;-70
2022/04/20 10:46:12;;;;;;;5.43;3.40;;;12.50;99.90;;;;;;5117888;28;20449;-70
2022/04/20 10:48:52;;;;;;;5.10;3.37;;;12.30;99.90;;;;;;5118093;28;20451;-71
2022/04/20 10:51:22;;;;;;;5.40;3.27;;;12.10;99.90;;;;;;5117912;28;20790;-71
2022/04/20 10:53:50;;;;;;;4.10;3.27;;;12.00;99.90;;;;;;5117624;28;20876;-72
2022/04/20 10:56:18;;;;;;;3.57;3.27;;;12.00;99.90;;;;;;5117597;28;20504;-71
2022/04/20 10:58:52;;;;;;;5.30;4.90;;;12.00;99.90;;;;;;5117465;28;20484;-74
2022/04/20 11:01:20;;;;;;;3.40;3.10;;;12.00;99.90;;;;;;5117511;28;20548;-71
2022/04/20 11:04:05;;;;;;;3.50;3.07;;;12.20;99.90;;;;;;5117471;28;20778;-71
2022/04/20 11:07:06;;;;;;;6.87;5.20;;;12.30;99.90;;;;;;5117066;28;20448;-71
2022/04/20 11:09:59;;;;;;;5.07;2.97;;;12.40;99.90;;;;;;5117752;28;20457;-72
2022/04/20 11:18:39;;;;;;;3.70;3.20;;;12.90;99.90;;;;;;5116861;28;20424;-71
2022/04/20 11:21:16;;;;;;;5.07;3.37;;;12.80;99.90;;;;;;5117427;28;20464;-72
2022/04/20 11:24:01;;;;;;;4.43;3.23;;;13.00;99.90;;;;;;5117783;28;20817;-71
2022/04/20 11:26:29;;;;;;;4.03;3.10;;;13.10;99.90;;;;;;5117286;28;20988;-70
2022/04/20 11:28:59;;;;;;;5.30;3.10;;;13.30;99.90;;;;;;5117331;28;20456;-72
2022/04/20 11:31:26;;;;;;;2.90;2.70;;;13.40;99.90;;;;;;5117425;28;20444;-72
2022/04/20 11:33:54;;;;;;;8.60;3.33;;;13.50;99.90;;;;;;5117827;28;20456;-71
2022/04/20 11:36:22;;;;;;;3.90;3.10;;;13.50;99.90;;;;;;5117291;28;20491;-71
2022/04/20 11:38:50;;;;;;;3.90;2.67;;;13.60;99.90;;;;;;5117081;28;20517;-70
2022/04/20 11:41:19;;;;;;;3.63;3.00;;;13.40;99.90;;;;;;5116868;28;20571;-72
2022/04/20 11:43:49;;;;;;;4.30;3.00;;;13.30;99.90;;;;;;5117089;28;20460;-71
2022/04/20 11:46:17;;;;;;;3.10;2.53;;;13.30;99.90;;;;;;5116975;28;20491;-71
2022/04/20 11:48:55;;;;;;;2.87;2.37;;;13.20;99.90;;;;;;5117243;28;20453;-71
2022/04/20 11:51:28;;;;;;;5.00;3.50;;;13.30;99.90;;;;;;5116265;28;20452;-72
2022/04/20 11:53:56;;;;;;;4.00;2.67;;;13.50;99.90;;;;;;5115755;28;20904;-71
2022/04/20 11:56:43;;;;;;;3.80;2.53;;;13.70;99.90;;;;;;5116425;28;20995;-72
2022/04/20 11:59:10;;;;;;;3.67;2.80;;;13.90;99.90;;;;;;5109494;28;20763;-72
2022/04/20 12:01:38;;;;;;;4.80;3.50;;;14.10;99.90;;;;;;5116062;28;20472;-72
2022/04/20 12:04:12;;;;;;;3.60;2.97;;;14.20;99.90;;;;;;5116322;28;20503;-72
2022/04/20 12:06:46;;;;;;;4.00;2.20;;;14.40;99.90;;;;;;5116022;28;20436;-72
2022/04/20 12:09:14;;;;;;;2.90;2.27;;;14.30;99.90;;;;;;5116397;28;20698;-72
2022/04/20 12:11:42;;;;;;;5.97;2.77;;;14.20;99.90;;;;;;5116371;28;20460;-70
2022/04/20 12:14:09;;;;;;;3.27;2.97;;;14.20;99.90;;;;;;5116401;28;20452;-72
2022/04/20 12:16:37;;;;;;;4.03;2.97;;;14.20;99.90;;;;;;5116673;28;20463;-72
2022/04/20 12:19:04;;;;;;;5.13;2.77;;;14.20;99.90;;;;;;5116614;28;20513;-72
2022/04/20 12:21:46;;;;;;;5.87;3.53;;;14.30;99.90;;;;;;5116624;28;20540;-73
2022/04/20 12:24:21;;;;;;;15.57;10.67;;;14.20;99.90;;;;;;5116281;28;20444;-71
2022/04/20 12:26:48;;;;;;;5.40;3.50;;;14.00;99.90;;;;;;5115093;28;20435;-71
2022/04/20 12:29:18;;;;;;;3.50;3.20;;;14.10;99.90;;;;;;5115367;28;20508;-70
2022/04/20 12:31:46;;;;;;;4.43;3.30;;;14.30;99.90;;;;;;5115134;28;20730;-71
2022/04/20 12:34:16;;;;;;;3.27;2.90;;;14.50;99.90;;;;;;5115192;28;20519;-71
2022/04/20 12:36:57;;;;;;;6.37;3.30;;;14.90;99.90;;;;;;5115364;28;20490;-72
2022/04/20 12:39:27;;;;;;;4.70;3.23;;;15.60;99.90;;;;;;5114620;28;20539;-71
2022/04/20 12:41:55;;;;;;;6.07;2.70;;;16.10;99.90;;;;;;5115053;28;20480;-71
2022/04/20 12:44:46;;;;;;;3.93;3.53;;;16.30;99.90;;;;;;5115169;28;20456;-71
2022/04/20 12:47:35;;;;;;;3.63;3.30;;;16.30;99.90;;;;;;5115308;28;20583;-71
2022/04/20 12:50:25;;;;;;;4.93;3.70;;;16.00;99.90;;;;;;5115235;28;20469;-72
2022/04/20 12:52:54;;;;;;;5.77;3.53;;;15.80;99.90;;;;;;5115511;28;20761;-70
2022/04/20 12:55:23;;;;;;;4.17;3.20;;;15.50;99.90;;;;;;5115232;28;20487;-72
2022/04/20 13:03:37;;;;;;;4.77;3.37;;;15.40;99.90;;;;;;5084970;28;20876;-72
2022/04/20 13:06:06;;;;;;;4.50;3.20;;;15.30;99.90;;;;;;5120021;28;20753;-71
2022/04/20 13:08:33;;;;;;;5.30;3.30;;;15.30;99.90;;;;;;5119937;28;20452;-71
2022/04/20 13:11:01;;;;;;;8.03;3.07;;;15.30;99.90;;;;;;5120074;28;20494;-71
2022/04/20 13:13:29;;;;;;;3.10;2.80;;;15.30;99.90;;;;;;5119214;28;20559;-71
2022/04/20 13:15:56;;;;;;;3.63;3.30;;;15.30;99.90;;;;;;5120169;28;20901;-71
2022/04/20 13:18:23;;;;;;;3.10;2.80;;;15.30;99.90;;;;;;5119711;28;20452;-71
2022/04/20 13:20:50;;;;;;;5.10;3.60;;;15.30;99.90;;;;;;5119571;28;20460;-70
2022/04/20 13:23:17;;;;;;;9.40;3.63;;;15.30;99.90;;;;;;5119610;28;20491;-71
2022/04/20 13:28:29;;;;;;;3.13;2.90;;;15.30;99.90;;;;;;5119655;28;20871;-72
2022/04/20 13:30:56;;;;;;;4.67;3.77;;;15.20;99.90;;;;;;5119954;28;20448;-71
2022/04/20 13:33:23;;;;;;;3.40;3.10;;;15.20;99.90;;;;;;5119604;28;20506;-70